createdAt,value
2019-03-19T00:01:07.814Z,48.28
2019-03-19T00:03:41.868Z,48.52
2019-03-19T00:06:15.969Z,48.28
2019-03-19T00:08:52.646Z,47.81
2019-03-19T00:11:26.874Z,47.96
2019-03-19T00:14:00.561Z,47.78
2019-03-19T00:16:34.295Z,47.62
2019-03-19T00:19:09.823Z,47.47
2019-03-19T00:21:44.012Z,47.44
2019-03-19T00:24:17.899Z,46.87
2019-03-19T00:26:51.565Z,46.84
2019-03-19T00:29:25.253Z,46.99
2019-03-19T00:31:59.060Z,46.92
2019-03-19T00:34:32.516Z,46.54
2019-03-19T00:37:06.852Z,46.26
2019-03-19T00:39:40.770Z,45.69
2019-03-19T00:42:14.576Z,45.55
2019-03-19T00:44:48.835Z,45.53
2019-03-19T00:47:22.986Z,45.71
2019-03-19T00:49:56.890Z,46.00
2019-03-19T00:52:31.117Z,45.83
2019-03-19T00:55:05.461Z,46.12
2019-03-19T00:57:40.322Z,45.84
2019-03-19T01:00:21.242Z,45.81
2019-03-19T01:02:57.011Z,45.67
2019-03-19T01:05:30.869Z,45.50
2019-03-19T01:08:04.479Z,45.40
2019-03-19T01:10:38.303Z,45.04
2019-03-19T01:13:12.134Z,45.21
2019-03-19T01:15:46.002Z,44.84
2019-03-19T01:18:21.500Z,44.94
2019-03-19T01:20:55.200Z,45.19
2019-03-19T01:23:28.798Z,45.02
2019-03-19T01:26:03.101Z,45.49
2019-03-19T01:28:37.427Z,45.62
2019-03-19T01:31:11.471Z,45.66
2019-03-19T01:33:45.239Z,45.69
2019-03-19T01:36:19.425Z,45.50
2019-03-19T01:38:53.247Z,45.84
2019-03-19T01:41:27.316Z,45.61
2019-03-19T01:44:01.673Z,45.17
2019-03-19T01:46:35.602Z,45.35
2019-03-19T01:49:09.344Z,44.87
2019-03-19T01:51:43.678Z,45.19
2019-03-19T01:54:17.428Z,45.48
2019-03-19T01:56:51.431Z,45.30
2019-03-19T01:59:25.605Z,44.87
2019-03-19T02:01:59.913Z,45.21
2019-03-19T02:04:33.995Z,44.76
2019-03-19T02:07:08.115Z,44.52
2019-03-19T02:09:42.862Z,44.24
2019-03-19T02:12:16.726Z,44.31
2019-03-19T02:14:50.605Z,44.33
2019-03-19T02:17:24.335Z,44.13
2019-03-19T02:19:58.414Z,43.85
2019-03-19T02:22:32.106Z,43.27
2019-03-19T02:25:06.136Z,43.33
2019-03-19T02:27:40.298Z,43.04
2019-03-19T02:30:17.115Z,42.33
2019-03-19T02:32:50.971Z,42.74
2019-03-19T02:35:25.096Z,42.90
2019-03-19T02:37:58.912Z,42.38
2019-03-19T02:40:33.060Z,42.42
2019-03-19T02:43:06.994Z,42.18
2019-03-19T02:45:40.915Z,41.82
2019-03-19T02:48:14.882Z,41.76
2019-03-19T02:50:48.637Z,41.54
2019-03-19T02:53:22.410Z,41.38
2019-03-19T02:55:56.546Z,41.19
2019-03-19T02:58:30.633Z,40.97
2019-03-19T03:01:04.368Z,40.48
2019-03-19T03:03:38.195Z,40.40
2019-03-19T03:06:11.946Z,40.53
2019-03-19T03:08:45.992Z,40.30
2019-03-19T03:11:20.421Z,39.98
2019-03-19T03:13:54.626Z,39.50
2019-03-19T03:16:28.867Z,39.65
2019-03-19T03:19:02.821Z,39.94
2019-03-19T03:21:36.834Z,39.91
2019-03-19T03:24:13.484Z,40.28
2019-03-19T03:26:48.260Z,39.86
2019-03-19T03:29:23.495Z,40.21
2019-03-19T03:31:57.251Z,39.73
2019-03-19T03:34:31.328Z,39.06
2019-03-19T03:37:05.534Z,39.10
2019-03-19T03:39:42.524Z,38.96
2019-03-19T03:42:17.098Z,38.54
2019-03-19T03:44:51.508Z,38.07
2019-03-19T03:47:25.746Z,38.12
2019-03-19T03:49:59.702Z,37.48
2019-03-19T03:52:35.957Z,37.65
2019-03-19T03:55:14.676Z,37.68
2019-03-19T03:57:48.914Z,37.29
2019-03-19T04:00:26.171Z,36.77
2019-03-19T04:03:00.605Z,36.43
2019-03-19T04:05:34.825Z,36.56
2019-03-19T04:08:09.313Z,36.29
2019-03-19T04:10:43.584Z,35.87
2019-03-19T04:13:18.130Z,35.62
2019-03-19T04:15:54.641Z,34.94
2019-03-19T04:18:29.120Z,34.64
2019-03-19T04:21:03.203Z,34.77
2019-03-19T04:23:37.579Z,34.18
2019-03-19T04:26:11.829Z,34.16
2019-03-19T04:28:47.862Z,34.19
2019-03-19T04:31:24.151Z,34.23
2019-03-19T04:33:59.002Z,34.20
2019-03-19T04:36:32.966Z,34.14
2019-03-19T04:39:08.130Z,34.19
2019-03-19T04:41:42.591Z,33.87
2019-03-19T04:44:18.896Z,33.62
2019-03-19T04:46:53.271Z,33.36
2019-03-19T04:49:28.239Z,33.12
2019-03-19T04:52:02.248Z,33.12
2019-03-19T04:54:36.784Z,32.86
2019-03-19T04:57:10.981Z,32.90
2019-03-19T04:59:45.055Z,32.75
2019-03-19T05:02:21.670Z,33.25
2019-03-19T05:04:56.990Z,33.16
2019-03-19T05:07:31.821Z,32.90
2019-03-19T05:10:07.281Z,32.51
2019-03-19T05:12:43.108Z,32.46
2019-03-19T05:15:18.109Z,32.40
2019-03-19T05:17:52.277Z,32.05
2019-03-19T05:20:26.680Z,31.99
2019-03-19T05:23:03.034Z,31.35
2019-03-19T05:25:38.717Z,30.95
2019-03-19T05:28:13.337Z,30.92
2019-03-19T05:30:47.566Z,30.47
2019-03-19T05:33:21.485Z,29.78
2019-03-19T05:35:55.639Z,29.29
2019-03-19T05:38:29.697Z,29.18
2019-03-19T05:41:03.700Z,28.82
2019-03-19T05:43:37.691Z,28.96
2019-03-19T05:46:11.570Z,29.00
2019-03-19T05:48:45.845Z,29.35
2019-03-19T05:51:20.007Z,29.51
2019-03-19T05:53:54.130Z,29.20
2019-03-19T05:56:28.650Z,28.50
2019-03-19T05:59:04.025Z,28.17
2019-03-19T06:01:38.123Z,28.24
2019-03-19T06:04:12.106Z,27.30
2019-03-19T06:06:49.594Z,27.36
2019-03-19T06:09:25.295Z,26.61
2019-03-19T06:11:59.682Z,25.90
2019-03-19T06:14:33.650Z,25.87
2019-03-19T06:17:07.556Z,25.62
2019-03-19T06:19:41.364Z,25.92
2019-03-19T06:22:15.666Z,25.58
2019-03-19T06:24:50.402Z,25.76
2019-03-19T06:27:24.374Z,26.25
2019-03-19T06:29:58.262Z,26.41
2019-03-19T06:32:43.492Z,26.63
2019-03-19T06:35:18.426Z,26.74
2019-03-19T06:37:52.268Z,26.88
2019-03-19T06:40:26.233Z,26.58
2019-03-19T06:43:00.356Z,25.83
2019-03-19T06:45:34.205Z,25.29
2019-03-19T06:48:08.216Z,25.26
2019-03-19T06:50:45.469Z,25.33
2019-03-19T06:53:18.371Z,25.58
2019-03-19T06:55:52.227Z,25.33
2019-03-19T06:58:26.154Z,25.13
2019-03-19T07:01:00.025Z,25.22
2019-03-19T07:03:34.001Z,25.20
2019-03-19T07:06:08.296Z,25.39
2019-03-19T07:08:41.899Z,25.51
2019-03-19T07:11:15.865Z,25.13
2019-03-19T07:13:49.877Z,25.25
2019-03-19T07:16:26.252Z,25.53
2019-03-19T07:19:02.094Z,25.41
2019-03-19T07:21:36.158Z,25.54
2019-03-19T07:24:10.113Z,25.32
2019-03-19T07:26:44.039Z,25.29
2019-03-19T07:29:19.359Z,25.48
2019-03-19T07:31:52.952Z,25.42
2019-03-19T07:34:27.050Z,25.54
2019-03-19T07:37:01.466Z,25.64
2019-03-19T07:39:35.711Z,25.85
2019-03-19T07:42:09.441Z,26.03
2019-03-19T07:44:43.142Z,25.96
2019-03-19T07:47:17.453Z,25.84
2019-03-19T07:49:51.599Z,25.74
2019-03-19T07:52:27.520Z,26.04
2019-03-19T07:55:01.858Z,26.22
2019-03-19T07:57:35.847Z,26.34
2019-03-19T08:00:14.960Z,26.37
2019-03-19T08:02:49.689Z,26.48
2019-03-19T08:05:32.905Z,26.75
2019-03-19T08:08:04.736Z,26.81
2019-03-19T08:10:40.206Z,27.05
2019-03-19T08:13:15.037Z,27.32
2019-03-19T08:15:48.918Z,27.66
2019-03-19T08:18:22.960Z,27.85
2019-03-19T08:20:56.728Z,28.06
2019-03-19T08:23:30.893Z,28.21
2019-03-19T08:26:04.796Z,28.31
2019-03-19T08:28:39.468Z,28.36
2019-03-19T08:31:13.516Z,28.40
2019-03-19T08:33:49.257Z,28.64
2019-03-19T08:36:23.247Z,29.07
2019-03-19T08:38:57.268Z,29.33
2019-03-19T08:41:30.899Z,29.51
2019-03-19T08:44:06.127Z,29.63
2019-03-19T08:46:40.526Z,29.55
2019-03-19T08:49:16.456Z,29.86
2019-03-19T08:51:51.279Z,29.91
2019-03-19T08:54:32.463Z,29.96
2019-03-19T08:57:06.532Z,30.45
2019-03-19T08:59:40.747Z,30.42
2019-03-19T09:02:18.041Z,30.64
2019-03-19T09:04:51.923Z,30.70
2019-03-19T09:07:44.921Z,30.82
2019-03-19T09:10:20.327Z,31.09
2019-03-19T09:12:54.020Z,31.51
2019-03-19T09:15:31.474Z,31.79
2019-03-19T09:18:05.639Z,31.93
2019-03-19T09:20:39.446Z,32.19
2019-03-19T09:23:18.883Z,32.33
2019-03-19T09:25:52.798Z,32.42
2019-03-19T09:28:28.546Z,32.54
2019-03-19T09:31:03.945Z,32.76
2019-03-19T09:33:46.502Z,32.89
2019-03-19T09:36:22.258Z,33.16
2019-03-19T09:38:56.479Z,33.48
2019-03-19T09:41:30.988Z,33.50
2019-03-19T09:44:04.568Z,33.56
2019-03-19T09:46:38.757Z,33.73
2019-03-19T09:49:13.626Z,33.92
2019-03-19T09:51:47.298Z,34.17
2019-03-19T09:54:21.617Z,34.30
2019-03-19T09:56:55.667Z,34.40
2019-03-19T09:59:29.950Z,34.56
2019-03-19T10:02:05.654Z,34.67
2019-03-19T10:04:39.282Z,34.80
2019-03-19T10:07:16.299Z,34.81
2019-03-19T10:09:50.057Z,34.86
2019-03-19T10:12:24.007Z,35.13
2019-03-19T10:15:00.424Z,35.23
2019-03-19T10:17:34.135Z,35.31
2019-03-19T10:20:10.361Z,35.39
2019-03-19T10:22:44.445Z,35.57
2019-03-19T10:25:18.909Z,35.67
2019-03-19T10:27:54.905Z,35.64
2019-03-19T10:30:30.813Z,35.91
2019-03-19T10:33:05.562Z,36.08
2019-03-19T10:35:39.605Z,35.83
2019-03-19T10:38:13.954Z,35.75
2019-03-19T10:40:49.268Z,35.61
2019-03-19T10:43:23.896Z,35.51
2019-03-19T10:45:58.986Z,35.72
2019-03-19T10:48:33.356Z,35.69
2019-03-19T10:51:08.024Z,35.80
2019-03-19T10:53:42.462Z,35.97
2019-03-19T10:56:16.928Z,36.14
2019-03-19T10:58:53.325Z,36.34
2019-03-19T11:01:27.354Z,36.49
2019-03-19T11:04:02.710Z,36.71
2019-03-19T11:06:37.498Z,36.84
2019-03-19T11:09:12.231Z,36.78
2019-03-19T11:11:47.008Z,36.89
2019-03-19T11:14:21.198Z,37.03
2019-03-19T11:16:56.242Z,36.81
2019-03-19T11:19:30.621Z,36.77
2019-03-19T11:22:06.398Z,36.59
2019-03-19T11:24:40.722Z,36.80
2019-03-19T11:27:15.912Z,36.64
2019-03-19T11:29:59.522Z,36.91
2019-03-19T11:32:26.472Z,36.91
2019-03-19T11:35:01.634Z,36.89
2019-03-19T11:37:36.620Z,36.78
2019-03-19T11:40:27.621Z,36.77
2019-03-19T11:43:04.450Z,36.61
2019-03-19T11:45:45.948Z,36.71
2019-03-19T11:48:23.044Z,36.57
2019-03-19T11:51:00.744Z,36.57
2019-03-19T11:53:37.601Z,36.61
2019-03-19T11:56:12.661Z,36.50
2019-03-19T11:58:48.000Z,36.26
2019-03-19T12:01:32.978Z,36.29
2019-03-19T12:04:09.214Z,36.33
2019-03-19T12:06:47.108Z,36.62
2019-03-19T12:09:22.650Z,36.61
2019-03-19T12:11:57.019Z,36.85
2019-03-19T12:14:31.433Z,37.27
2019-03-19T12:17:07.516Z,37.26
2019-03-19T12:19:46.497Z,37.47
2019-03-19T12:22:23.346Z,37.67
2019-03-19T12:25:00.109Z,37.82
2019-03-19T12:27:35.085Z,38.11
2019-03-19T12:30:22.138Z,38.17
2019-03-19T12:32:50.096Z,38.39
2019-03-19T12:35:24.304Z,38.55
2019-03-19T12:37:58.719Z,38.82
2019-03-19T12:40:37.213Z,39.30
2019-03-19T12:43:10.386Z,39.24
2019-03-19T12:45:46.938Z,39.60
2019-03-19T12:48:21.935Z,39.64
2019-03-19T12:50:59.355Z,39.59
2019-03-19T12:53:36.459Z,39.90
2019-03-19T12:56:13.319Z,40.06
2019-03-19T12:58:48.467Z,40.37
2019-03-19T13:01:23.530Z,40.37
2019-03-19T13:03:59.689Z,40.53
2019-03-19T13:06:35.541Z,40.73
2019-03-19T13:09:10.695Z,40.83
2019-03-19T13:11:45.419Z,40.91
2019-03-19T13:14:22.616Z,40.91
2019-03-19T13:16:59.207Z,40.83
2019-03-19T13:19:34.314Z,41.03
2019-03-19T13:22:09.351Z,40.90
2019-03-19T13:24:44.544Z,41.08
2019-03-19T13:27:19.649Z,41.03
2019-03-19T13:29:55.061Z,40.86
2019-03-19T13:32:30.138Z,40.91
2019-03-19T13:35:08.256Z,40.84
2019-03-19T13:37:43.261Z,40.96
2019-03-19T13:40:21.277Z,40.98
2019-03-19T13:42:55.922Z,41.29
2019-03-19T13:45:33.076Z,41.13
2019-03-19T13:48:12.858Z,41.24
2019-03-19T13:50:53.219Z,41.39
2019-03-19T13:53:27.753Z,41.53
2019-03-19T13:56:02.345Z,42.00
2019-03-19T13:58:40.341Z,42.17
2019-03-19T14:01:17.139Z,42.28
2019-03-19T14:03:55.418Z,42.33
2019-03-19T14:06:31.927Z,42.62
2019-03-19T14:09:08.056Z,42.80
2019-03-19T14:11:57.310Z,43.04
2019-03-19T14:14:47.374Z,43.49
2019-03-19T14:17:42.961Z,43.66
2019-03-19T14:20:20.872Z,43.85
2019-03-19T14:22:55.606Z,44.17
2019-03-19T14:25:31.824Z,44.44
2019-03-19T14:28:06.465Z,44.59
2019-03-19T14:30:41.205Z,44.78
2019-03-19T14:33:16.128Z,44.84
2019-03-19T14:35:49.933Z,44.92
2019-03-19T14:38:24.441Z,45.07
2019-03-19T14:41:00.651Z,45.15
2019-03-19T14:43:34.806Z,45.18
2019-03-19T14:46:08.983Z,45.25
2019-03-19T14:48:46.618Z,45.08
2019-03-19T14:51:20.362Z,45.19
2019-03-19T14:53:54.708Z,45.26
2019-03-19T14:56:28.628Z,45.44
2019-03-19T14:59:02.577Z,45.60
2019-03-19T15:01:36.142Z,45.88
2019-03-19T15:04:10.224Z,45.85
2019-03-19T15:06:44.509Z,46.01
2019-03-19T15:09:18.626Z,46.33
2019-03-19T15:11:52.661Z,46.27
2019-03-19T15:14:26.376Z,46.44
2019-03-19T15:17:04.829Z,46.74
2019-03-19T15:19:35.685Z,46.99
2019-03-19T15:22:10.571Z,46.99
2019-03-19T15:24:46.524Z,47.22
2019-03-19T15:27:22.223Z,47.39
2019-03-19T15:29:56.168Z,47.56
2019-03-19T15:32:32.861Z,47.80
2019-03-19T15:35:07.791Z,48.96
2019-03-19T15:37:41.592Z,48.37
2019-03-19T15:40:23.328Z,48.73
2019-03-19T15:42:57.866Z,48.80
2019-03-19T15:45:34.426Z,48.97
2019-03-19T15:48:07.953Z,49.04
2019-03-19T15:50:42.245Z,49.17
2019-03-19T15:53:17.408Z,49.34
2019-03-19T15:55:53.113Z,49.23
2019-03-19T15:58:29.039Z,49.54
2019-03-19T16:01:02.598Z,49.74
2019-03-19T16:03:36.610Z,49.80
2019-03-19T16:06:11.294Z,49.96
2019-03-19T16:08:45.132Z,50.18
2019-03-19T16:11:20.414Z,50.34
2019-03-19T16:13:55.485Z,50.23
2019-03-19T16:16:30.585Z,50.45
2019-03-19T16:19:04.754Z,50.56
2019-03-19T16:21:38.721Z,50.77
2019-03-19T16:24:12.541Z,50.88
2019-03-19T16:26:46.603Z,50.97
2019-03-19T16:29:39.649Z,51.12
2019-03-19T16:32:13.563Z,51.16
2019-03-19T16:34:47.401Z,51.12
2019-03-19T16:37:26.103Z,51.27
2019-03-19T16:40:00.023Z,51.32
2019-03-19T16:42:33.844Z,51.43
2019-03-19T16:45:09.621Z,51.56
2019-03-19T16:47:43.679Z,51.58
2019-03-19T16:50:21.109Z,51.50
2019-03-19T16:52:54.947Z,51.51
2019-03-19T16:55:30.104Z,51.87
2019-03-19T16:58:04.041Z,51.78
2019-03-19T17:00:38.467Z,51.75
2019-03-19T17:03:12.282Z,51.76
2019-03-19T17:05:47.114Z,51.84
2019-03-19T17:08:20.758Z,52.18
2019-03-19T17:10:55.012Z,52.15
2019-03-19T17:13:28.781Z,52.11
2019-03-19T17:16:02.777Z,52.43
2019-03-19T17:18:37.901Z,52.20
2019-03-19T17:21:12.967Z,52.44
2019-03-19T17:23:47.053Z,52.56
2019-03-19T17:26:21.114Z,52.62
2019-03-19T17:28:55.047Z,52.68
2019-03-19T17:31:28.925Z,52.90
2019-03-19T17:34:02.590Z,52.98
2019-03-19T17:36:36.222Z,53.07
2019-03-19T17:39:10.993Z,52.88
2019-03-19T17:41:44.714Z,53.26
2019-03-19T17:44:18.611Z,53.42
2019-03-19T17:46:53.899Z,53.53
2019-03-19T17:49:27.835Z,53.78
2019-03-19T17:52:02.178Z,53.92
2019-03-19T17:54:36.038Z,53.99
2019-03-19T17:57:09.893Z,54.11
2019-03-19T17:59:43.616Z,54.06
2019-03-19T18:02:23.900Z,54.06
2019-03-19T18:04:54.162Z,54.15
2019-03-19T18:07:28.191Z,54.27
2019-03-19T18:10:03.107Z,54.44
2019-03-19T18:12:39.021Z,54.41
2019-03-19T18:15:22.829Z,54.71
2019-03-19T18:17:56.758Z,54.81
2019-03-19T18:20:30.963Z,55.14
2019-03-19T18:23:04.754Z,55.00
2019-03-19T18:25:39.790Z,55.23
2019-03-19T18:28:15.133Z,55.39
2019-03-19T18:30:48.635Z,55.55
2019-03-19T18:33:22.384Z,56.08
2019-03-19T18:35:56.574Z,56.13
2019-03-19T18:38:30.538Z,56.16
2019-03-19T18:41:04.430Z,56.08
2019-03-19T18:43:38.051Z,56.22
2019-03-19T18:46:12.396Z,56.56
2019-03-19T18:48:46.253Z,56.67
2019-03-19T18:51:21.404Z,56.70
2019-03-19T18:53:55.357Z,56.78
2019-03-19T18:56:29.994Z,57.43
2019-03-19T18:59:05.277Z,57.43
2019-03-19T19:01:39.040Z,57.58
2019-03-19T19:04:13.632Z,58.02
2019-03-19T19:06:47.511Z,57.94
2019-03-19T19:09:21.509Z,58.38
2019-03-19T19:11:55.240Z,58.86
2019-03-19T19:14:35.980Z,59.00
2019-03-19T19:17:13.155Z,58.86
2019-03-19T19:19:47.050Z,58.92
2019-03-19T19:22:30.164Z,59.08
2019-03-19T19:25:04.362Z,59.11
2019-03-19T19:27:38.097Z,59.13
2019-03-19T19:30:14.657Z,58.92
2019-03-19T19:32:48.773Z,59.03
2019-03-19T19:35:22.763Z,58.92
2019-03-19T19:37:56.680Z,59.14
2019-03-19T19:40:30.441Z,59.32
2019-03-19T19:43:05.392Z,59.19
2019-03-19T19:45:42.532Z,59.98
2019-03-19T19:48:14.680Z,59.98
2019-03-19T19:50:52.068Z,59.75
2019-03-19T19:53:25.805Z,60.18
2019-03-19T19:56:00.007Z,61.13
2019-03-19T19:58:35.203Z,61.58
2019-03-19T20:01:09.036Z,61.10
2019-03-19T20:03:42.937Z,61.09
2019-03-19T20:06:16.323Z,61.25
2019-03-19T20:08:50.481Z,60.65
2019-03-19T20:11:24.453Z,60.07
2019-03-19T20:13:58.052Z,59.11
2019-03-19T20:16:32.483Z,58.38
2019-03-19T20:19:06.147Z,58.60
2019-03-19T20:21:43.386Z,58.78
2019-03-19T20:24:17.070Z,59.13
2019-03-19T20:26:51.397Z,59.10
2019-03-19T20:29:25.738Z,58.72
2019-03-19T20:31:59.534Z,56.85
2019-03-19T20:34:33.423Z,55.91
2019-03-19T20:37:07.115Z,54.70
2019-03-19T20:39:41.266Z,54.52
2019-03-19T20:42:14.889Z,53.54
2019-03-19T20:44:48.632Z,52.37
2019-03-19T20:47:22.378Z,52.95
2019-03-19T20:49:56.476Z,51.48
2019-03-19T20:52:32.704Z,50.79
2019-03-19T20:55:06.375Z,51.22
2019-03-19T20:57:40.178Z,50.89
2019-03-19T21:00:16.935Z,50.42
2019-03-19T21:02:50.501Z,50.64
2019-03-19T21:05:24.947Z,50.80
2019-03-19T21:07:58.710Z,50.71
2019-03-19T21:10:32.592Z,52.23
2019-03-19T21:13:06.184Z,50.82
2019-03-19T21:15:41.203Z,50.25
2019-03-19T21:18:15.039Z,50.57
2019-03-19T21:20:50.060Z,51.26
2019-03-19T21:23:24.267Z,51.25
2019-03-19T21:25:58.188Z,50.86
2019-03-19T21:28:32.396Z,51.09
2019-03-19T21:31:06.051Z,52.58
2019-03-19T21:33:50.520Z,53.05
2019-03-19T21:36:17.405Z,51.75
2019-03-19T21:38:51.194Z,53.28
2019-03-19T21:41:26.780Z,52.64
2019-03-19T21:44:00.378Z,51.70
2019-03-19T21:46:34.028Z,52.19
2019-03-19T21:49:07.787Z,51.85
2019-03-19T21:51:41.436Z,52.71
2019-03-19T21:54:15.279Z,52.29
2019-03-19T21:56:49.001Z,52.74
2019-03-19T21:59:22.958Z,51.89
2019-03-19T22:01:56.796Z,52.18
2019-03-19T22:04:30.662Z,52.72
2019-03-19T22:07:04.451Z,52.78
2019-03-19T22:09:38.525Z,52.37
2019-03-19T22:18:50.618Z,52.29
2019-03-19T22:21:24.276Z,52.34
2019-03-19T22:23:59.524Z,53.32
2019-03-19T22:26:33.009Z,52.95
2019-03-19T22:29:06.270Z,51.86
2019-03-19T22:31:40.079Z,52.65
2019-03-19T22:34:14.418Z,52.00
2019-03-19T22:36:48.121Z,53.05
2019-03-19T22:42:27.507Z,52.60
2019-03-19T22:45:01.395Z,52.54
2019-03-19T22:47:36.386Z,52.48
2019-03-19T22:50:12.907Z,53.19
2019-03-19T22:52:47.225Z,52.86
2019-03-19T22:55:28.629Z,51.76
2019-03-19T22:57:55.084Z,51.76
2019-03-19T23:00:32.365Z,53.77
2019-03-19T23:03:07.292Z,54.32
2019-03-19T23:05:45.496Z,53.52
2019-03-19T23:08:17.862Z,52.27
2019-03-19T23:10:51.153Z,52.54
2019-03-19T23:14:06.073Z,53.25
2019-03-19T23:19:39.683Z,53.47
2019-03-19T23:22:14.965Z,53.55
2019-03-19T23:24:49.231Z,54.58
2019-03-19T23:27:24.195Z,54.73
2019-03-19T23:29:57.841Z,54.69
2019-03-19T23:32:31.978Z,56.45
2019-03-19T23:35:06.606Z,53.85
2019-03-19T23:38:07.674Z,53.90
2019-03-19T23:43:44.630Z,54.06
2019-03-19T23:46:18.914Z,54.10
2019-03-19T23:48:53.181Z,53.86
2019-03-19T23:51:26.927Z,53.99
2019-03-19T23:54:02.069Z,55.27
2019-03-19T23:56:37.184Z,53.94
2019-03-19T23:59:11.237Z,55.66
